Plainville, New York
Current Conditions -  °F | °C
As of 1:54 PM on Friday 31 Oct 2014 (Local Time) from KFZY Reporting Station
Overcast Overcast  
Wind Chill: 50°   Ceiling: 6000
Heat Index: 50°   Visibility: 10mi
Dew Point: 35°   Wind: 5mph
Humidity: 57%   Direction: 90°E
Pressure: 29.96"   Gusts: NA
Location:  43.16°N, 76.45°W
Report Text: KFZY 311754Z AUTO 09004KT 10SM BKN060 OVC090 10/02 A2996 RMK AO2 SLP146 T01000017 10100 20044 58015
Loading
Personal Weather Stations






























Interactive Weather Map
Tropical Storm Tracking
New forecast layout! Learn more

10-Day Weather Forecast

Advertisements
Track Severe Weather on mobile